createdAt,value
2019-03-06T05:58:38.607Z,935.06
2019-03-06T05:59:43.582Z,935.02
2019-03-06T06:00:51.622Z,935.05
2019-03-06T06:01:59.693Z,935.09
2019-03-06T06:03:07.828Z,935.10
2019-03-06T06:04:16.085Z,935.10
2019-03-06T06:05:23.860Z,935.10
2019-03-06T06:06:31.920Z,935.11
2019-03-06T06:07:41.509Z,935.11
2019-03-06T06:08:48.032Z,935.11
2019-03-06T06:09:56.521Z,935.08
2019-03-06T06:11:04.128Z,935.09
2019-03-06T06:12:12.196Z,935.06
2019-03-06T06:13:20.346Z,935.06
2019-03-06T06:14:28.308Z,935.07
2019-03-06T06:15:36.359Z,935.05
2019-03-06T06:16:44.422Z,935.07
2019-03-06T06:17:52.457Z,935.03
2019-03-06T06:19:01.730Z,935.06
2019-03-06T06:20:08.566Z,935.07
2019-03-06T06:21:16.626Z,935.08
2019-03-06T06:22:24.719Z,935.06
2019-03-06T06:23:32.761Z,935.08
2019-03-06T06:24:40.893Z,935.12
2019-03-06T06:25:48.813Z,935.08
2019-03-06T06:26:56.906Z,935.07
2019-03-06T06:28:04.958Z,935.08
2019-03-06T06:29:13.030Z,935.12
2019-03-06T06:30:22.090Z,935.13
2019-03-06T06:31:29.092Z,935.17
2019-03-06T06:32:37.182Z,935.13
2019-03-06T06:33:45.235Z,935.14
2019-03-06T06:34:53.397Z,935.14
2019-03-06T06:36:01.436Z,935.19
2019-03-06T06:37:09.411Z,935.17
2019-03-06T06:38:17.467Z,935.18
2019-03-06T06:39:25.511Z,935.21
2019-03-06T06:40:35.577Z,935.20
2019-03-06T06:41:41.719Z,935.18
2019-03-06T06:42:49.699Z,935.22
2019-03-06T06:43:57.738Z,935.20
2019-03-06T06:45:05.790Z,935.25
2019-03-06T06:46:13.835Z,935.16
2019-03-06T06:47:22.004Z,935.14
2019-03-06T06:48:29.962Z,935.14
2019-03-06T06:49:38.000Z,935.05
2019-03-06T06:50:46.161Z,935.03
2019-03-06T06:51:54.130Z,935.07
2019-03-06T06:53:02.238Z,935.05
2019-03-06T06:54:10.248Z,935.08
2019-03-06T06:55:18.304Z,935.16
2019-03-06T06:56:26.363Z,935.11
2019-03-06T06:57:34.519Z,935.14
2019-03-06T06:58:42.491Z,935.10
2019-03-06T06:59:50.538Z,935.07
2019-03-06T07:00:58.601Z,934.99
2019-03-06T07:02:06.668Z,934.94
2019-03-06T07:03:14.805Z,934.91
2019-03-06T07:04:22.772Z,934.90
2019-03-06T07:05:30.823Z,934.86
2019-03-06T07:06:38.964Z,934.81
2019-03-06T07:07:47.032Z,934.78
2019-03-06T07:08:55.000Z,934.83
2019-03-06T07:10:03.073Z,934.83
2019-03-06T07:11:11.125Z,934.84
2019-03-06T07:12:19.158Z,934.80
2019-03-06T07:13:27.293Z,934.81
2019-03-06T07:14:35.316Z,934.85
2019-03-06T07:15:43.364Z,934.92
2019-03-06T07:16:51.414Z,934.93
2019-03-06T07:17:59.449Z,935.00
2019-03-06T07:19:07.621Z,935.02
2019-03-06T07:20:15.593Z,935.06
2019-03-06T07:21:23.636Z,935.00
2019-03-06T07:22:31.801Z,935.02
2019-03-06T07:23:41.299Z,935.04
2019-03-06T07:24:47.911Z,935.06
2019-03-06T07:25:55.866Z,935.02
2019-03-06T07:27:03.946Z,935.00
2019-03-06T07:28:11.998Z,935.00
2019-03-06T07:29:20.059Z,935.04
2019-03-06T07:30:28.213Z,935.05
2019-03-06T07:31:36.169Z,935.06
2019-03-06T07:32:44.224Z,935.06
2019-03-06T07:33:52.306Z,935.07
2019-03-06T07:35:00.379Z,935.13
2019-03-06T07:36:08.490Z,935.22
2019-03-06T07:37:16.464Z,935.31
2019-03-06T07:38:24.622Z,935.30
2019-03-06T07:39:32.584Z,935.34
2019-03-06T07:40:40.659Z,935.41
2019-03-06T07:41:48.734Z,935.57
2019-03-06T07:42:56.813Z,935.55
2019-03-06T07:44:04.837Z,935.60
2019-03-06T07:45:12.896Z,935.70
2019-03-06T07:46:21.035Z,935.66
2019-03-06T07:47:28.979Z,935.86
2019-03-06T07:48:37.054Z,936.24
2019-03-06T07:49:45.560Z,936.39
2019-03-06T07:50:53.193Z,936.26
2019-03-06T07:52:01.351Z,936.49
2019-03-06T07:53:09.335Z,937.00
2019-03-06T07:54:17.362Z,937.47
2019-03-06T07:55:25.427Z,937.58
2019-03-06T07:56:33.517Z,937.38
2019-03-06T07:57:41.599Z,937.53
2019-03-06T07:58:49.620Z,937.96
2019-03-06T07:59:57.673Z,938.33
2019-03-06T08:01:05.735Z,938.12
2019-03-06T08:02:13.812Z,937.21
2019-03-06T08:03:21.904Z,937.49
2019-03-06T08:04:29.904Z,939.08
2019-03-06T08:05:38.004Z,939.58
2019-03-06T08:06:46.031Z,939.34
2019-03-06T08:07:54.194Z,940.32
2019-03-06T08:09:02.147Z,940.28
2019-03-06T08:10:10.228Z,936.67
2019-03-06T08:11:18.279Z,935.12
2019-03-06T08:12:26.352Z,934.87
2019-03-06T08:13:34.407Z,934.78
2019-03-06T08:14:42.484Z,934.68
2019-03-06T08:15:50.540Z,934.61
2019-03-06T08:16:58.593Z,934.58
2019-03-06T08:18:06.764Z,934.51
2019-03-06T08:19:14.703Z,934.51
2019-03-06T08:20:22.778Z,934.51
2019-03-06T08:21:30.854Z,934.49
2019-03-06T08:22:38.992Z,934.47
2019-03-06T08:23:47.057Z,934.50
2019-03-06T08:24:55.028Z,934.48
2019-03-06T08:26:03.110Z,934.46
2019-03-06T08:27:11.136Z,934.39
2019-03-06T08:28:19.322Z,934.34
2019-03-06T08:29:27.288Z,934.38
2019-03-06T08:30:35.396Z,934.35
2019-03-06T08:31:43.415Z,934.35
2019-03-06T08:32:51.498Z,934.33
2019-03-06T08:33:59.653Z,934.34
2019-03-06T08:35:07.609Z,934.32
2019-03-06T08:36:15.635Z,934.30
2019-03-06T08:37:23.703Z,934.31
2019-03-06T08:38:31.747Z,934.32
2019-03-06T08:39:40.084Z,934.33
2019-03-06T08:40:47.909Z,934.29
2019-03-06T08:41:55.949Z,934.31
2019-03-06T08:43:04.011Z,934.31
2019-03-06T08:44:12.091Z,934.30
2019-03-06T08:45:20.179Z,934.25
2019-03-06T08:46:28.202Z,934.20
2019-03-06T08:47:36.254Z,934.18
2019-03-06T08:48:44.490Z,934.20
2019-03-06T08:49:52.475Z,934.19
2019-03-06T08:51:00.445Z,934.17
2019-03-06T08:52:08.497Z,934.19
2019-03-06T08:53:16.561Z,934.22
2019-03-06T08:54:24.728Z,934.24
2019-03-06T08:55:32.801Z,934.27
2019-03-06T08:56:40.753Z,934.27
2019-03-06T08:57:48.890Z,934.31
2019-03-06T08:58:56.868Z,934.34
2019-03-06T09:00:04.936Z,934.29
2019-03-06T09:01:13.090Z,934.33
2019-03-06T09:02:21.116Z,934.29
2019-03-06T09:03:29.133Z,934.23
2019-03-06T09:04:37.221Z,934.24
2019-03-06T09:05:45.285Z,934.23
2019-03-06T09:06:53.365Z,934.22
2019-03-06T09:08:01.408Z,934.27
2019-03-06T09:09:09.434Z,934.17
2019-03-06T09:10:17.507Z,934.18
2019-03-06T09:11:25.656Z,934.16
2019-03-06T09:12:33.726Z,934.17
2019-03-06T09:13:41.684Z,934.13
2019-03-06T09:14:49.748Z,934.12
2019-03-06T09:15:57.822Z,934.11
2019-03-06T09:17:05.973Z,934.13
2019-03-06T09:18:13.950Z,934.13
2019-03-06T09:19:21.995Z,934.13
2019-03-06T09:20:36.108Z,934.15
2019-03-06T09:21:38.312Z,934.11
2019-03-06T09:22:46.481Z,934.15
2019-03-06T09:23:54.451Z,934.13
2019-03-06T09:25:02.529Z,934.06
2019-03-06T09:26:10.607Z,934.02
2019-03-06T09:27:18.615Z,934.00
2019-03-06T09:28:26.797Z,933.98
2019-03-06T09:29:34.771Z,933.94
2019-03-06T09:30:42.870Z,933.98
2019-03-06T09:31:50.908Z,933.94
2019-03-06T09:32:59.039Z,933.95
2019-03-06T09:34:07.026Z,933.93
2019-03-06T09:35:15.083Z,933.91
2019-03-06T09:36:23.147Z,933.93
2019-03-06T09:37:31.459Z,933.92
2019-03-06T09:38:39.265Z,933.97
2019-03-06T09:39:47.350Z,933.96
2019-03-06T09:40:55.414Z,933.94
2019-03-06T09:42:03.456Z,933.94
2019-03-06T09:43:11.634Z,933.93
2019-03-06T09:44:19.693Z,933.91
2019-03-06T09:45:27.668Z,933.84
2019-03-06T09:46:35.740Z,933.86
2019-03-06T09:47:43.779Z,933.88
2019-03-06T09:48:51.907Z,933.87
2019-03-06T09:49:59.939Z,933.83
2019-03-06T09:51:07.992Z,933.83
2019-03-06T09:52:16.035Z,933.74
2019-03-06T09:53:24.130Z,933.68
2019-03-06T09:54:32.182Z,933.68
2019-03-06T09:55:40.251Z,933.66
2019-03-06T09:56:49.710Z,933.67
2019-03-06T09:57:57.771Z,933.63
2019-03-06T09:59:07.709Z,933.57
2019-03-06T10:01:39.997Z,933.54
2019-03-06T10:02:48.261Z,933.53
2019-03-06T10:06:28.798Z,933.41
2019-03-06T10:07:36.891Z,933.42
2019-03-06T10:08:44.954Z,933.45
2019-03-06T10:09:58.999Z,933.51
2019-03-06T10:11:01.036Z,933.48
2019-03-06T10:12:09.100Z,933.55
2019-03-06T10:13:17.176Z,933.51
2019-03-06T10:14:25.244Z,933.45
2019-03-06T10:15:33.414Z,933.37
2019-03-06T10:16:48.575Z,933.36
2019-03-06T10:17:49.453Z,933.30
2019-03-06T10:18:57.505Z,933.30
2019-03-06T10:20:05.579Z,933.37
2019-03-06T10:21:13.732Z,933.32
2019-03-06T10:22:21.715Z,933.35
2019-03-06T10:23:29.765Z,933.28
2019-03-06T10:24:37.831Z,933.30
2019-03-06T10:25:45.932Z,933.27
2019-03-06T10:26:54.272Z,933.31
2019-03-06T10:28:06.142Z,933.32
2019-03-06T10:29:10.085Z,933.32
2019-03-06T10:31:28.875Z,933.24
2019-03-06T10:32:37.016Z,933.21
2019-03-06T10:33:44.989Z,933.16
2019-03-06T10:34:54.865Z,933.15
2019-03-06T10:36:01.122Z,933.10
2019-03-06T10:37:09.136Z,933.07
2019-03-06T10:38:17.332Z,933.08
2019-03-06T10:39:25.319Z,933.11
2019-03-06T10:40:33.368Z,933.09
2019-03-06T10:41:41.442Z,933.09
2019-03-06T10:42:49.592Z,933.07
2019-03-06T10:43:57.591Z,933.06
2019-03-06T10:45:05.632Z,933.02
2019-03-06T10:46:13.731Z,933.00
2019-03-06T10:47:21.750Z,932.99
2019-03-06T10:48:29.929Z,932.97
2019-03-06T10:49:37.907Z,932.97
2019-03-06T10:50:45.971Z,933.03
2019-03-06T10:51:54.018Z,933.00
2019-03-06T10:53:02.236Z,932.97
2019-03-06T10:54:10.257Z,932.95
2019-03-06T10:55:18.234Z,932.93
2019-03-06T10:56:26.292Z,932.88
2019-03-06T10:57:34.350Z,932.84
2019-03-06T10:58:42.420Z,932.81
2019-03-06T10:59:50.592Z,932.81
2019-03-06T11:00:58.534Z,932.77
2019-03-06T11:02:06.701Z,932.79
2019-03-06T11:03:14.722Z,932.81
2019-03-06T11:04:22.779Z,932.79
2019-03-06T11:05:30.953Z,932.76
2019-03-06T11:06:38.886Z,932.74
2019-03-06T11:07:46.979Z,932.69
2019-03-06T11:08:55.055Z,932.63
2019-03-06T11:10:03.091Z,932.64
2019-03-06T11:11:11.243Z,932.64
2019-03-06T11:12:19.196Z,932.57
2019-03-06T11:13:27.295Z,932.59
2019-03-06T11:14:35.354Z,932.52
2019-03-06T11:15:43.413Z,932.53
2019-03-06T11:16:51.587Z,932.54
2019-03-06T11:17:59.644Z,932.51
2019-03-06T11:19:07.617Z,932.43
2019-03-06T11:20:15.689Z,932.45
2019-03-06T11:21:23.744Z,932.44
2019-03-06T11:22:31.853Z,932.44
2019-03-06T11:23:39.882Z,932.42
2019-03-06T11:24:47.945Z,932.40
2019-03-06T11:25:56.011Z,932.38
2019-03-06T11:27:04.083Z,932.41
2019-03-06T11:28:12.243Z,932.37
2019-03-06T11:29:20.200Z,932.36
2019-03-06T11:30:28.264Z,932.32
2019-03-06T11:31:36.349Z,932.30
2019-03-06T11:32:44.453Z,932.25
2019-03-06T11:33:52.581Z,932.23
2019-03-06T11:35:00.557Z,932.22
2019-03-06T11:36:08.587Z,932.14
2019-03-06T11:37:16.671Z,932.12
2019-03-06T11:38:24.745Z,932.09
2019-03-06T11:39:32.905Z,932.08
2019-03-06T11:40:40.857Z,932.07
2019-03-06T11:41:48.903Z,932.04
2019-03-06T11:42:56.993Z,932.03
2019-03-06T11:44:05.052Z,931.97
2019-03-06T11:45:13.232Z,931.98
2019-03-06T11:46:21.205Z,931.96
2019-03-06T11:47:29.322Z,931.95
2019-03-06T11:48:37.319Z,931.98
2019-03-06T11:49:45.388Z,931.95
2019-03-06T11:50:53.536Z,931.87
2019-03-06T11:52:01.501Z,931.84
2019-03-06T11:53:09.591Z,931.73
2019-03-06T11:54:17.641Z,931.74
2019-03-06T11:55:25.722Z,931.76
2019-03-06T11:56:33.879Z,931.76
2019-03-06T11:57:41.851Z,931.75
2019-03-06T11:58:49.916Z,931.71
2019-03-06T11:59:57.987Z,931.65
2019-03-06T12:01:06.045Z,931.66
2019-03-06T12:02:14.214Z,931.65
2019-03-06T12:03:22.221Z,931.67
2019-03-06T12:04:30.250Z,931.60
2019-03-06T12:05:38.303Z,931.55
2019-03-06T12:06:46.373Z,931.56
2019-03-06T12:07:54.542Z,931.55
2019-03-06T12:09:02.496Z,931.56
2019-03-06T12:10:10.579Z,931.54
2019-03-06T12:11:18.611Z,931.51
2019-03-06T12:12:26.702Z,931.49
2019-03-06T12:13:34.757Z,931.46
2019-03-06T12:14:42.832Z,931.46
2019-03-06T12:15:50.893Z,931.41
2019-03-06T12:16:58.953Z,931.42
2019-03-06T12:18:07.103Z,931.42
2019-03-06T12:19:15.109Z,931.37
2019-03-06T12:20:23.176Z,931.41
2019-03-06T12:21:31.264Z,931.43
2019-03-06T12:22:39.286Z,931.41
2019-03-06T12:23:47.463Z,931.41
2019-03-06T12:24:55.425Z,931.39
2019-03-06T12:26:03.492Z,931.39
2019-03-06T12:27:11.561Z,931.38
2019-03-06T12:28:19.624Z,931.33
2019-03-06T12:29:27.926Z,931.31
2019-03-06T12:30:35.761Z,931.30
2019-03-06T12:31:43.816Z,931.26
2019-03-06T12:32:51.892Z,931.27
2019-03-06T12:34:00.040Z,931.28
2019-03-06T12:35:08.111Z,931.26
2019-03-06T12:36:16.082Z,931.22
2019-03-06T12:37:24.144Z,931.19
2019-03-06T12:38:32.227Z,931.23
2019-03-06T12:39:40.285Z,931.20
2019-03-06T12:40:48.419Z,931.20
2019-03-06T12:41:56.420Z,931.24
2019-03-06T12:43:04.483Z,931.28
2019-03-06T12:44:12.541Z,931.21
2019-03-06T12:45:20.626Z,931.23
2019-03-06T12:46:28.743Z,931.18
2019-03-06T12:47:36.729Z,931.12
2019-03-06T12:48:44.830Z,931.12
2019-03-06T12:49:52.980Z,931.10
2019-03-06T12:51:00.932Z,931.10
2019-03-06T12:52:09.063Z,931.09
2019-03-06T12:53:17.097Z,931.12
2019-03-06T12:54:25.175Z,931.07
2019-03-06T12:55:33.213Z,931.03
2019-03-06T12:56:41.287Z,931.00
2019-03-06T12:57:49.427Z,930.96
2019-03-06T12:58:57.413Z,930.96
2019-03-06T13:00:05.479Z,930.91
2019-03-06T13:01:13.533Z,930.89
2019-03-06T13:02:21.609Z,930.93
2019-03-06T13:03:29.661Z,930.91
2019-03-06T13:04:37.742Z,930.92
2019-03-06T13:05:45.895Z,930.88
2019-03-06T13:06:53.876Z,930.88
2019-03-06T13:08:01.973Z,930.90
2019-03-06T13:09:10.013Z,930.82
2019-03-06T13:10:18.067Z,930.85
2019-03-06T13:11:26.137Z,930.80
2019-03-06T13:12:34.254Z,930.80
2019-03-06T13:13:42.270Z,930.81
2019-03-06T13:14:50.341Z,930.78
2019-03-06T13:15:58.383Z,930.75
2019-03-06T13:17:06.465Z,930.74
2019-03-06T13:18:14.646Z,930.73
2019-03-06T13:19:22.608Z,930.67
2019-03-06T13:20:30.671Z,930.70
2019-03-06T13:21:38.809Z,930.71
2019-03-06T13:22:46.807Z,930.70
2019-03-06T13:23:55.163Z,930.69
2019-03-06T13:25:03.135Z,930.71
2019-03-06T13:26:13.636Z,930.70
2019-03-06T13:27:21.695Z,930.70
2019-03-06T13:28:29.758Z,930.67
2019-03-06T13:29:37.929Z,930.73
2019-03-06T13:30:50.341Z,930.70
2019-03-06T13:33:10.695Z,930.67
2019-03-06T13:34:18.765Z,930.61
2019-03-06T13:35:26.922Z,930.60
2019-03-06T13:36:34.893Z,930.59
2019-03-06T13:37:42.966Z,930.60
2019-03-06T13:38:54.893Z,930.59
2019-03-06T13:39:59.083Z,930.59
2019-03-06T13:41:07.261Z,930.59
2019-03-06T13:42:15.240Z,930.57
2019-03-06T13:43:23.302Z,930.50
2019-03-06T13:44:31.372Z,930.47
2019-03-06T13:45:40.825Z,930.42
2019-03-06T13:46:48.989Z,930.44
2019-03-06T13:47:56.975Z,930.41
2019-03-06T13:49:05.056Z,930.44
2019-03-06T13:50:13.122Z,930.38
2019-03-06T13:52:38.411Z,930.35
2019-03-06T13:53:46.415Z,930.37
2019-03-06T13:54:54.461Z,930.38
2019-03-06T13:56:02.539Z,930.33
2019-03-06T13:57:10.592Z,930.36
2019-03-06T13:58:19.095Z,930.35
2019-03-06T13:59:26.733Z,930.35
2019-03-06T14:00:34.797Z,930.37
2019-03-06T14:01:42.874Z,930.35
2019-03-06T14:02:50.935Z,930.32
2019-03-06T14:03:59.087Z,930.32
2019-03-06T14:05:07.072Z,930.32
2019-03-06T14:06:15.131Z,930.34
2019-03-06T14:07:23.213Z,930.30
2019-03-06T14:08:31.280Z,930.33
2019-03-06T14:09:39.420Z,930.30
2019-03-06T14:10:47.397Z,930.30
2019-03-06T14:11:55.481Z,930.31
2019-03-06T14:13:03.539Z,930.33
2019-03-06T14:14:11.629Z,930.30
2019-03-06T14:15:19.792Z,930.27
2019-03-06T14:16:27.739Z,930.26
2019-03-06T14:17:35.815Z,930.31
2019-03-06T14:18:43.894Z,930.29
2019-03-06T14:19:51.960Z,930.31
2019-03-06T14:21:00.116Z,930.27
2019-03-06T14:22:08.092Z,930.27
2019-03-06T14:23:16.251Z,930.25
2019-03-06T14:24:24.228Z,930.21
2019-03-06T14:25:32.283Z,930.18
2019-03-06T14:26:40.446Z,930.18
2019-03-06T14:27:48.408Z,930.22
2019-03-06T14:28:56.490Z,930.18
2019-03-06T14:30:04.550Z,930.18
2019-03-06T14:31:12.626Z,930.18
2019-03-06T14:32:20.785Z,930.17
2019-03-06T14:33:28.762Z,930.20
2019-03-06T14:34:36.831Z,930.17
2019-03-06T14:35:44.914Z,930.15
2019-03-06T14:36:52.966Z,930.14
2019-03-06T14:38:01.117Z,930.14
2019-03-06T14:39:09.088Z,930.20
2019-03-06T14:40:17.174Z,930.20
2019-03-06T14:41:25.234Z,930.17
2019-03-06T14:42:33.391Z,930.14
2019-03-06T14:43:41.366Z,930.10
2019-03-06T14:44:49.404Z,930.03
2019-03-06T14:45:57.501Z,930.02
2019-03-06T14:47:05.558Z,930.02
2019-03-06T14:48:13.718Z,930.00
2019-03-06T14:49:21.692Z,929.97
2019-03-06T14:50:29.762Z,929.97
2019-03-06T14:51:37.821Z,929.95
2019-03-06T14:52:45.984Z,929.95
2019-03-06T14:53:54.160Z,929.94
2019-03-06T14:55:02.035Z,929.94
2019-03-06T14:56:10.128Z,929.93
2019-03-06T14:57:18.157Z,929.89
2019-03-06T14:58:26.320Z,929.90
2019-03-06T14:59:34.303Z,929.91
2019-03-06T15:01:56.292Z,929.89
2019-03-06T15:03:04.387Z,929.91
2019-03-06T15:04:12.417Z,929.88
2019-03-06T15:05:20.493Z,929.91
2019-03-06T15:06:28.535Z,929.92
2019-03-06T15:07:36.701Z,929.92
2019-03-06T15:08:44.716Z,929.87
2019-03-06T15:09:52.844Z,929.86
2019-03-06T15:11:00.794Z,929.86
2019-03-06T15:12:08.857Z,929.83
2019-03-06T15:13:17.028Z,929.84
2019-03-06T15:14:25.000Z,929.86
2019-03-06T15:15:33.067Z,929.83
2019-03-06T15:16:41.153Z,929.83
2019-03-06T15:17:49.193Z,929.78
2019-03-06T15:18:57.367Z,929.75
2019-03-06T15:20:05.343Z,929.73
2019-03-06T15:21:13.439Z,929.72
2019-03-06T15:22:21.512Z,929.70
2019-03-06T15:23:29.535Z,929.75
2019-03-06T15:24:41.176Z,929.72
2019-03-06T15:25:45.760Z,929.72
2019-03-06T15:26:53.732Z,929.69
2019-03-06T15:29:14.094Z,929.68
2019-03-06T15:30:22.269Z,929.68
2019-03-06T15:31:30.239Z,929.69
2019-03-06T15:32:38.289Z,929.68
2019-03-06T15:33:46.349Z,929.73
2019-03-06T15:34:54.428Z,929.68
2019-03-06T15:36:02.616Z,929.63
2019-03-06T15:37:10.564Z,929.59
2019-03-06T15:38:18.602Z,929.51
2019-03-06T15:39:26.695Z,929.46
2019-03-06T15:40:34.762Z,929.43
2019-03-06T15:41:42.928Z,929.45
2019-03-06T15:42:50.877Z,929.41
2019-03-06T15:43:58.927Z,929.39
2019-03-06T15:45:07.022Z,929.42
2019-03-06T15:46:15.105Z,929.40
2019-03-06T15:47:23.239Z,929.38
2019-03-06T15:48:31.210Z,929.37
2019-03-06T15:49:39.410Z,929.40
2019-03-06T15:50:47.337Z,929.41
2019-03-06T15:51:55.405Z,929.37
2019-03-06T15:53:03.526Z,929.36
2019-03-06T15:54:11.529Z,929.34
2019-03-06T15:55:19.605Z,929.33
2019-03-06T15:56:27.656Z,929.28
2019-03-06T15:57:35.827Z,929.27
2019-03-06T15:58:43.793Z,929.31
2019-03-06T15:59:51.852Z,929.36
2019-03-06T16:00:59.917Z,929.36
2019-03-06T16:02:07.999Z,929.32
2019-03-06T16:03:16.163Z,929.32
2019-03-06T16:04:24.129Z,929.35
2019-03-06T16:05:32.207Z,929.38
2019-03-06T16:06:40.242Z,929.41
2019-03-06T16:07:48.352Z,929.37
2019-03-06T16:08:56.367Z,929.38
2019-03-06T16:10:04.455Z,929.38
2019-03-06T16:11:12.517Z,929.37
2019-03-06T16:12:20.561Z,929.33
2019-03-06T16:13:28.621Z,929.31
2019-03-06T16:14:36.710Z,929.27
2019-03-06T16:15:44.770Z,929.25
2019-03-06T16:16:52.839Z,929.19
2019-03-06T16:18:00.948Z,929.20
2019-03-06T16:19:08.932Z,929.19
2019-03-06T16:20:17.031Z,929.15
2019-03-06T16:21:25.100Z,929.11
2019-03-06T16:22:33.267Z,929.07
2019-03-06T16:23:41.223Z,929.09
2019-03-06T16:24:49.266Z,929.18
2019-03-06T16:25:57.347Z,929.21
2019-03-06T16:27:05.419Z,929.23
2019-03-06T16:28:13.580Z,929.22
2019-03-06T16:29:23.604Z,929.21
2019-03-06T16:30:29.615Z,929.20
2019-03-06T16:31:37.674Z,929.21
2019-03-06T16:32:45.737Z,929.24
2019-03-06T16:33:53.901Z,929.24
2019-03-06T16:35:01.890Z,929.24
2019-03-06T16:36:09.929Z,929.25
2019-03-06T16:37:17.996Z,929.23
2019-03-06T16:38:26.074Z,929.27
2019-03-06T16:39:34.208Z,929.26
2019-03-06T16:40:42.198Z,929.24
2019-03-06T16:41:50.254Z,929.23
2019-03-06T16:42:58.395Z,929.28
2019-03-06T16:44:06.386Z,929.30
2019-03-06T16:45:14.532Z,929.27
2019-03-06T16:46:22.489Z,929.26
2019-03-06T16:47:30.581Z,929.29
2019-03-06T16:48:38.618Z,929.27
2019-03-06T16:49:46.696Z,929.21
2019-03-06T16:50:54.868Z,929.15
2019-03-06T16:52:02.828Z,929.17
2019-03-06T16:53:10.898Z,929.28
2019-03-06T16:54:18.928Z,929.28
2019-03-06T16:55:27.003Z,929.25
2019-03-06T16:56:35.165Z,929.26
2019-03-06T16:57:43.252Z,929.24
2019-03-06T16:58:51.206Z,929.23
2019-03-06T16:59:59.242Z,929.24
2019-03-06T17:01:07.340Z,929.22
2019-03-06T17:02:16.099Z,929.25
2019-03-06T17:03:24.067Z,929.23
2019-03-06T17:04:32.184Z,929.28
2019-03-06T17:05:40.203Z,929.28
2019-03-06T17:06:48.247Z,929.26
2019-03-06T17:07:56.406Z,929.25
2019-03-06T17:09:04.387Z,929.22
2019-03-06T17:10:12.424Z,929.13
2019-03-06T17:11:20.509Z,929.08
2019-03-06T17:12:28.610Z,928.94
2019-03-06T17:13:36.737Z,928.78
2019-03-06T17:14:44.687Z,928.61
2019-03-06T17:15:52.745Z,928.49
2019-03-06T17:17:00.820Z,928.41
2019-03-06T17:18:08.908Z,928.38
2019-03-06T17:19:16.936Z,928.32
2019-03-06T17:20:24.999Z,928.31
2019-03-06T17:21:33.066Z,928.33
2019-03-06T17:22:41.237Z,928.39
2019-03-06T17:23:49.180Z,928.34
2019-03-06T17:24:57.254Z,928.37
2019-03-06T17:26:05.317Z,928.34
2019-03-06T17:27:13.374Z,928.32
2019-03-06T17:28:21.523Z,928.29
2019-03-06T17:29:29.504Z,928.21
2019-03-06T17:30:37.559Z,928.22
2019-03-06T17:31:45.637Z,928.21
2019-03-06T17:32:53.774Z,928.22
2019-03-06T17:34:01.742Z,928.30
2019-03-06T17:35:09.800Z,928.30
2019-03-06T17:36:17.869Z,928.35
2019-03-06T17:37:25.943Z,928.38
2019-03-06T17:38:34.092Z,928.36
2019-03-06T17:39:42.054Z,928.32
2019-03-06T17:40:50.119Z,928.38
2019-03-06T17:41:58.176Z,928.41
2019-03-06T17:43:06.248Z,928.37
2019-03-06T17:44:14.392Z,928.36
2019-03-06T17:45:22.370Z,928.41
2019-03-06T17:46:30.432Z,928.39
2019-03-06T17:47:39.446Z,928.34
2019-03-06T17:48:46.553Z,928.37
2019-03-06T17:49:54.724Z,928.29
2019-03-06T17:51:02.679Z,928.28
2019-03-06T17:52:10.777Z,928.26
2019-03-06T17:53:18.778Z,928.33
2019-03-06T17:54:26.857Z,928.38
2019-03-06T17:55:35.569Z,928.27
2019-03-06T17:56:42.975Z,928.26
2019-03-06T17:57:51.050Z,928.23
2019-03-06T17:58:59.087Z,928.15
2019-03-06T18:00:16.385Z,928.18
2019-03-06T18:01:15.309Z,928.15
2019-03-06T18:02:23.296Z,928.12
2019-03-06T18:03:31.359Z,928.19
2019-03-06T18:04:39.395Z,928.19
2019-03-06T18:05:47.477Z,928.15
2019-03-06T18:06:55.633Z,928.07
2019-03-06T18:08:03.598Z,928.03
2019-03-06T18:09:11.638Z,927.98
2019-03-06T18:10:19.718Z,928.02
2019-03-06T18:11:27.797Z,928.13
2019-03-06T18:12:35.897Z,928.20
2019-03-06T18:13:43.890Z,928.24
2019-03-06T18:14:51.947Z,928.22
2019-03-06T18:16:00.117Z,928.17
2019-03-06T18:17:08.088Z,928.22
2019-03-06T18:18:16.192Z,928.15
2019-03-06T18:19:24.195Z,928.11
2019-03-06T18:20:32.276Z,928.11
2019-03-06T18:21:40.321Z,928.08
2019-03-06T18:22:48.425Z,928.07
2019-03-06T18:23:57.847Z,928.10
2019-03-06T18:25:04.509Z,928.15
2019-03-06T18:26:12.569Z,928.12
2019-03-06T18:27:26.206Z,928.08
2019-03-06T18:28:28.679Z,928.13
2019-03-06T18:29:36.759Z,928.13
2019-03-06T18:30:44.815Z,927.99
2019-03-06T18:31:52.970Z,927.94
2019-03-06T18:33:01.034Z,928.05
2019-03-06T18:34:09.004Z,928.26
2019-03-06T18:35:17.045Z,928.08
2019-03-06T18:36:25.117Z,927.75
2019-03-06T18:37:33.266Z,927.63
2019-03-06T18:38:41.532Z,927.90
2019-03-06T18:39:49.283Z,928.07
2019-03-06T18:40:57.373Z,927.95
2019-03-06T18:42:05.442Z,927.74
2019-03-06T18:43:13.571Z,927.86
2019-03-06T18:44:21.540Z,928.01
2019-03-06T18:45:29.598Z,928.02
2019-03-06T18:46:37.670Z,927.86
2019-03-06T18:47:45.842Z,927.78
2019-03-06T18:48:53.932Z,927.87
2019-03-06T18:50:01.834Z,927.92
2019-03-06T18:51:09.937Z,927.87
2019-03-06T18:52:17.986Z,927.88
2019-03-06T18:53:26.041Z,927.88
2019-03-06T18:54:34.231Z,927.74
2019-03-06T18:55:42.173Z,927.61
2019-03-06T18:56:50.232Z,927.67
2019-03-06T18:57:58.267Z,927.84
2019-03-06T18:59:06.326Z,927.86
2019-03-06T19:00:14.508Z,927.78
2019-03-06T19:01:22.479Z,927.72
2019-03-06T19:02:30.608Z,927.68
2019-03-06T19:03:38.582Z,927.68
2019-03-06T19:04:46.688Z,927.76
2019-03-06T19:05:54.809Z,927.77
2019-03-06T19:07:02.762Z,927.71
2019-03-06T19:08:11.070Z,927.66
2019-03-06T19:09:19.823Z,927.64
2019-03-06T19:10:26.945Z,927.62
2019-03-06T19:11:35.101Z,927.61
2019-03-06T19:12:43.064Z,927.61
2019-03-06T19:13:51.158Z,927.63
2019-03-06T19:14:59.147Z,927.62
2019-03-06T19:16:07.248Z,927.51
2019-03-06T19:17:15.405Z,927.48
2019-03-06T19:18:23.476Z,927.61
2019-03-06T19:19:31.431Z,927.62
2019-03-06T19:20:39.500Z,927.51
2019-03-06T19:21:47.589Z,927.39
2019-03-06T19:22:55.712Z,927.34
2019-03-06T19:24:03.682Z,927.37
2019-03-06T19:25:11.737Z,927.34
2019-03-06T19:26:19.801Z,927.31
2019-03-06T19:27:27.956Z,927.33
2019-03-06T19:28:35.921Z,927.33
2019-03-06T19:29:44.005Z,927.29
2019-03-06T19:30:52.041Z,927.29
2019-03-06T19:32:00.101Z,927.26
2019-03-06T19:33:08.263Z,927.24
2019-03-06T19:34:16.224Z,927.23
2019-03-06T19:35:24.292Z,927.19
2019-03-06T19:36:32.625Z,927.18
2019-03-06T19:37:40.459Z,927.17
2019-03-06T19:38:48.468Z,927.18
2019-03-06T19:39:56.520Z,927.19
2019-03-06T19:41:04.583Z,927.20
2019-03-06T19:42:12.650Z,927.20
2019-03-06T19:43:22.589Z,927.28
2019-03-06T19:44:28.737Z,927.26
2019-03-06T19:45:36.828Z,927.26
2019-03-06T19:46:44.895Z,927.24
2019-03-06T19:47:52.946Z,927.23
2019-03-06T19:49:01.161Z,927.17
2019-03-06T19:50:09.078Z,927.16
2019-03-06T19:51:17.136Z,927.16
2019-03-06T19:52:25.498Z,927.18
2019-03-06T19:53:33.571Z,927.17
2019-03-06T19:54:42.005Z,927.16
2019-03-06T19:55:49.380Z,927.19
2019-03-06T19:56:57.431Z,927.18
2019-03-06T19:58:05.486Z,927.16
2019-03-06T19:59:13.547Z,927.07
2019-03-06T20:00:21.705Z,927.08
2019-03-06T20:01:29.653Z,927.12
2019-03-06T20:02:37.733Z,927.08
2019-03-06T20:03:45.827Z,927.07
2019-03-06T20:04:53.938Z,927.07
2019-03-06T20:06:02.014Z,927.07
2019-03-06T20:07:09.976Z,927.07
2019-03-06T20:08:18.039Z,927.03
2019-03-06T20:09:26.096Z,926.99
2019-03-06T20:10:34.137Z,927.01
2019-03-06T20:11:42.314Z,927.02
2019-03-06T20:12:50.272Z,926.96
2019-03-06T20:13:58.320Z,926.94
2019-03-06T20:15:06.404Z,926.95
2019-03-06T20:16:14.448Z,926.97
2019-03-06T20:17:22.962Z,926.86